createdAt,value
2017-07-26T00:01:46.185Z,90.80
2017-07-26T00:04:12.153Z,91.00
2017-07-26T00:06:38.113Z,91.20
2017-07-26T00:09:11.534Z,90.80
2017-07-26T00:11:37.489Z,90.70
2017-07-26T00:14:03.451Z,90.20
2017-07-26T00:16:29.438Z,90.00
2017-07-26T00:18:55.391Z,90.20
2017-07-26T00:21:21.318Z,90.10
2017-07-26T00:23:47.322Z,90.30
2017-07-26T00:26:13.347Z,89.90
2017-07-26T00:28:39.295Z,90.10
2017-07-26T00:31:05.253Z,89.90
2017-07-26T00:33:31.943Z,90.20
2017-07-26T00:35:57.941Z,90.10
2017-07-26T00:38:23.886Z,89.40
2017-07-26T00:40:49.826Z,89.70
2017-07-26T00:43:15.777Z,89.40
2017-07-26T00:45:41.726Z,89.60
2017-07-26T00:48:07.673Z,89.40
2017-07-26T00:50:34.362Z,88.60
2017-07-26T00:53:00.390Z,89.40
2017-07-26T00:55:26.372Z,88.90
2017-07-26T00:57:53.044Z,90.00
2017-07-26T01:00:18.999Z,90.00
2017-07-26T01:02:44.939Z,89.70
2017-07-26T01:05:10.881Z,89.90
2017-07-26T01:07:36.861Z,89.50
2017-07-26T01:10:02.880Z,89.00
2017-07-26T01:12:28.830Z,89.50
2017-07-26T01:14:54.751Z,88.50
2017-07-26T01:17:20.726Z,87.60
2017-07-26T01:19:46.693Z,87.30
2017-07-26T01:22:39.586Z,87.20
2017-07-26T01:25:05.545Z,87.40
2017-07-26T01:27:32.229Z,88.00
2017-07-26T01:29:58.172Z,88.00
2017-07-26T01:32:24.134Z,88.50
2017-07-26T01:34:50.184Z,88.50
2017-07-26T01:37:16.127Z,88.40
2017-07-26T01:39:42.086Z,88.20
2017-07-26T01:42:08.025Z,88.10
2017-07-26T01:44:34.025Z,87.60
2017-07-26T01:47:00.002Z,88.30
2017-07-26T01:49:26.009Z,87.80
2017-07-26T01:51:52.018Z,87.30
2017-07-26T01:54:17.982Z,88.30
2017-07-26T01:56:43.924Z,87.60
2017-07-26T01:59:09.901Z,87.80
2017-07-26T02:01:35.841Z,87.40
2017-07-26T02:04:01.822Z,87.80
2017-07-26T02:06:27.774Z,87.60
2017-07-26T02:08:53.741Z,87.30
2017-07-26T02:11:19.732Z,87.70
2017-07-26T02:13:45.689Z,87.90
2017-07-26T02:16:11.633Z,87.90
2017-07-26T02:18:38.371Z,88.10
2017-07-26T02:21:04.422Z,88.10
2017-07-26T02:23:30.417Z,87.50
2017-07-26T02:25:56.361Z,86.80
2017-07-26T02:28:22.398Z,87.10
2017-07-26T02:30:48.356Z,87.20
2017-07-26T02:33:14.301Z,87.20
2017-07-26T02:35:40.246Z,87.90
2017-07-26T02:38:06.187Z,87.70
2017-07-26T02:40:32.133Z,87.30
2017-07-26T02:42:58.093Z,87.20
2017-07-26T02:45:24.049Z,86.80
2017-07-26T02:47:50.011Z,87.00
2017-07-26T02:50:15.965Z,87.30
2017-07-26T02:52:41.936Z,86.30
2017-07-26T02:55:07.902Z,87.50
2017-07-26T02:57:33.855Z,87.50
2017-07-26T02:59:59.849Z,86.50
2017-07-26T03:02:25.797Z,86.30
2017-07-26T03:04:52.491Z,87.20
2017-07-26T03:07:18.445Z,87.10
2017-07-26T03:09:44.403Z,87.20
2017-07-26T03:12:11.093Z,87.40
2017-07-26T03:14:37.037Z,87.30
2017-07-26T03:17:02.992Z,86.10
2017-07-26T03:19:28.982Z,85.50
2017-07-26T03:21:54.945Z,84.70
2017-07-26T03:24:21.657Z,86.10
2017-07-26T03:26:47.622Z,86.00
2017-07-26T03:29:14.306Z,86.60
2017-07-26T03:31:40.318Z,86.60
2017-07-26T03:34:06.404Z,85.80
2017-07-26T03:36:32.432Z,84.70
2017-07-26T03:38:58.425Z,84.90
2017-07-26T03:41:24.398Z,84.00
2017-07-26T03:43:50.358Z,84.30
2017-07-26T03:46:17.063Z,84.00
2017-07-26T03:48:43.070Z,83.50
2017-07-26T03:51:09.027Z,84.20
2017-07-26T03:53:34.981Z,84.50
2017-07-26T03:56:01.693Z,84.20
2017-07-26T03:58:27.688Z,84.10
2017-07-26T04:00:53.612Z,84.40
2017-07-26T04:03:19.618Z,85.40
2017-07-26T04:05:45.556Z,85.50
2017-07-26T04:08:11.525Z,86.70
2017-07-26T04:10:37.478Z,85.60
2017-07-26T04:13:04.213Z,86.70
2017-07-26T04:15:30.153Z,86.50
2017-07-26T04:17:56.846Z,85.70
2017-07-26T04:20:22.837Z,86.20
2017-07-26T04:22:49.514Z,86.60
2017-07-26T04:25:15.491Z,86.60
2017-07-26T04:27:41.451Z,86.10
2017-07-26T04:30:07.461Z,85.50
2017-07-26T04:32:33.409Z,84.90
2017-07-26T04:34:59.377Z,83.70
2017-07-26T04:37:25.340Z,84.90
2017-07-26T04:39:51.302Z,84.70
2017-07-26T04:42:17.262Z,83.70
2017-07-26T04:44:43.244Z,84.10
2017-07-26T04:47:09.201Z,84.50
2017-07-26T04:49:35.162Z,83.00
2017-07-26T04:52:01.099Z,83.50
2017-07-26T04:54:27.086Z,83.60
2017-07-26T04:56:53.017Z,83.70
2017-07-26T04:59:18.945Z,83.90
2017-07-26T05:01:44.895Z,84.10
2017-07-26T05:04:10.850Z,84.20
2017-07-26T05:06:37.557Z,84.80
2017-07-26T05:09:03.528Z,84.20
2017-07-26T05:11:30.200Z,85.60
2017-07-26T05:13:56.157Z,84.80
2017-07-26T05:16:22.102Z,84.20
2017-07-26T05:18:48.013Z,83.60
2017-07-26T05:21:13.973Z,83.50
2017-07-26T05:23:40.664Z,84.30
2017-07-26T05:26:12.709Z,84.30
2017-07-26T05:28:38.678Z,84.60
2017-07-26T05:31:04.716Z,84.50
2017-07-26T05:33:30.656Z,84.90
2017-07-26T05:35:56.594Z,85.60
2017-07-26T05:38:23.281Z,86.90
2017-07-26T05:40:49.230Z,86.70
2017-07-26T05:43:15.165Z,86.70
2017-07-26T05:45:41.103Z,86.10
2017-07-26T05:48:07.049Z,86.10
2017-07-26T05:50:33.775Z,84.90
2017-07-26T05:53:00.537Z,84.90
2017-07-26T05:55:26.469Z,83.40
2017-07-26T05:57:53.174Z,84.90
2017-07-26T06:00:19.178Z,84.80
2017-07-26T06:02:45.113Z,83.60
2017-07-26T06:05:11.061Z,83.90
2017-07-26T06:07:37.037Z,83.80
2017-07-26T06:10:03.735Z,85.10
2017-07-26T06:12:29.688Z,84.30
2017-07-26T06:14:56.386Z,86.00
2017-07-26T06:17:22.335Z,85.40
2017-07-26T06:19:48.314Z,84.70
2017-07-26T06:22:14.230Z,85.20
2017-07-26T06:24:40.930Z,85.60
2017-07-26T06:27:06.908Z,85.50
2017-07-26T06:29:32.862Z,85.80
2017-07-26T06:31:58.809Z,86.20
2017-07-26T06:34:24.756Z,86.00
2017-07-26T06:36:50.722Z,86.10
2017-07-26T06:39:16.685Z,85.50
2017-07-26T06:41:42.652Z,85.60
2017-07-26T06:44:08.617Z,84.70
2017-07-26T06:46:34.570Z,85.20
2017-07-26T06:49:00.489Z,86.20
2017-07-26T06:51:26.494Z,85.40
2017-07-26T06:53:52.407Z,84.20
2017-07-26T06:56:19.157Z,84.30
2017-07-26T06:58:45.181Z,84.20
2017-07-26T07:01:11.116Z,85.20
2017-07-26T07:03:37.766Z,85.90
2017-07-26T07:06:04.450Z,85.20
2017-07-26T07:08:30.434Z,85.20
2017-07-26T07:10:56.381Z,86.00
2017-07-26T07:13:22.339Z,85.40
2017-07-26T07:15:48.301Z,84.50
2017-07-26T07:18:15.009Z,83.80
2017-07-26T07:20:40.974Z,83.70
2017-07-26T07:23:06.892Z,85.10
2017-07-26T07:25:33.592Z,88.10
2017-07-26T07:27:59.568Z,87.10
2017-07-26T07:30:25.533Z,88.40
2017-07-26T07:32:51.469Z,88.10
2017-07-26T07:35:17.398Z,87.50
2017-07-26T07:37:43.338Z,88.40
2017-07-26T07:40:09.258Z,89.00
2017-07-26T07:42:35.212Z,88.50
2017-07-26T07:45:01.150Z,88.20
2017-07-26T07:47:27.121Z,87.50
2017-07-26T07:49:53.049Z,87.60
2017-07-26T07:52:19.000Z,87.50
2017-07-26T07:54:44.958Z,86.30
2017-07-26T07:57:10.916Z,86.50
2017-07-26T07:59:36.859Z,86.60
2017-07-26T08:02:02.842Z,85.50
2017-07-26T08:04:28.785Z,85.20
2017-07-26T08:06:55.458Z,85.10
2017-07-26T08:09:22.493Z,85.10
2017-07-26T08:11:52.722Z,85.90
2017-07-26T08:14:19.385Z,85.80
2017-07-26T08:16:45.338Z,85.80
2017-07-26T08:19:11.279Z,84.50
2017-07-26T08:21:41.858Z,84.40
2017-07-26T08:24:07.978Z,84.70
2017-07-26T08:26:35.151Z,83.20
2017-07-26T08:29:01.081Z,83.10
2017-07-26T08:31:27.030Z,83.90
2017-07-26T08:33:53.169Z,83.00
2017-07-26T08:36:19.101Z,83.10
2017-07-26T08:38:45.054Z,82.80
2017-07-26T08:41:11.778Z,83.40
2017-07-26T08:43:37.745Z,82.40
2017-07-26T08:46:03.662Z,82.50
2017-07-26T08:48:29.595Z,82.30
2017-07-26T08:50:59.566Z,82.00
2017-07-26T08:53:25.646Z,81.20
2017-07-26T08:55:53.429Z,82.00
2017-07-26T08:58:20.110Z,81.40
2017-07-26T09:00:46.047Z,81.40
2017-07-26T09:03:12.055Z,82.20
2017-07-26T09:05:37.999Z,81.70
2017-07-26T09:08:03.926Z,80.80
2017-07-26T09:10:29.900Z,80.50
2017-07-26T09:12:56.610Z,80.30
2017-07-26T09:15:22.583Z,80.10
2017-07-26T09:17:53.001Z,78.70
2017-07-26T09:20:19.694Z,78.60
2017-07-26T09:22:45.657Z,78.60
2017-07-26T09:25:15.916Z,79.10
2017-07-26T09:27:42.980Z,79.40
2017-07-26T09:30:08.934Z,79.70
2017-07-26T09:32:34.932Z,80.00
2017-07-26T09:35:00.918Z,78.40
2017-07-26T09:37:27.389Z,78.70
2017-07-26T09:39:54.061Z,79.50
2017-07-26T09:42:20.021Z,79.40
2017-07-26T09:44:47.011Z,78.60
2017-07-26T09:47:12.953Z,77.60
2017-07-26T09:49:47.018Z,76.90
2017-07-26T09:52:12.966Z,75.80
2017-07-26T09:54:39.697Z,77.90
2017-07-26T09:57:09.195Z,77.90
2017-07-26T09:59:35.153Z,77.90
2017-07-26T10:02:01.849Z,76.30
2017-07-26T10:04:27.839Z,76.30
2017-07-26T10:06:53.803Z,75.30
2017-07-26T10:09:19.740Z,75.80
2017-07-26T10:11:45.682Z,76.00
2017-07-26T10:14:11.616Z,76.70
2017-07-26T10:16:37.745Z,75.70
2017-07-26T10:19:05.742Z,74.20
2017-07-26T10:21:36.077Z,73.80
2017-07-26T10:24:05.430Z,73.90
2017-07-26T10:26:31.436Z,74.00
2017-07-26T10:28:59.500Z,72.40
2017-07-26T10:31:30.381Z,72.30
2017-07-26T10:33:57.373Z,72.10
2017-07-26T10:36:25.153Z,71.80
2017-07-26T10:38:53.830Z,71.40
2017-07-26T10:41:21.813Z,71.40
2017-07-26T10:43:48.566Z,69.90
2017-07-26T10:46:15.603Z,69.80
2017-07-26T10:48:43.396Z,69.70
2017-07-26T10:51:10.475Z,69.70
2017-07-26T10:53:36.455Z,69.10
2017-07-26T10:56:03.543Z,67.80
2017-07-26T10:58:29.556Z,65.20
2017-07-26T11:00:55.568Z,64.70
2017-07-26T11:03:24.353Z,64.20
2017-07-26T11:05:52.157Z,67.00
2017-07-26T11:08:20.238Z,67.00
2017-07-26T11:10:46.251Z,64.20
2017-07-26T11:13:13.000Z,65.70
2017-07-26T11:15:38.985Z,65.70
2017-07-26T11:18:04.961Z,63.30
2017-07-26T11:20:30.909Z,62.40
2017-07-26T11:22:57.913Z,62.90
2017-07-26T11:25:29.676Z,63.40
2017-07-26T11:28:01.840Z,59.70
2017-07-26T11:30:28.615Z,61.50
2017-07-26T11:32:58.312Z,61.20
2017-07-26T11:35:28.635Z,57.70
2017-07-26T11:37:55.385Z,59.00
2017-07-26T11:40:37.221Z,59.20
2017-07-26T11:43:03.221Z,58.70
2017-07-26T11:45:34.066Z,56.90
2017-07-26T11:48:01.107Z,55.70
2017-07-26T11:50:30.503Z,57.60
2017-07-26T11:52:57.186Z,56.60
2017-07-26T11:55:23.195Z,56.70
2017-07-26T11:57:52.487Z,52.60
2017-07-26T12:00:18.510Z,55.40
2017-07-26T12:02:49.061Z,52.30
2017-07-26T12:05:15.134Z,52.40
2017-07-26T12:07:46.789Z,52.70
2017-07-26T12:10:18.002Z,52.30
2017-07-26T12:12:45.050Z,52.70
2017-07-26T12:15:13.098Z,52.80
2017-07-26T12:17:39.812Z,53.20
2017-07-26T12:20:05.794Z,53.10
2017-07-26T12:22:31.824Z,53.30
2017-07-26T12:25:01.725Z,53.10
2017-07-26T12:27:34.048Z,50.90
2017-07-26T12:30:10.377Z,50.90
2017-07-26T12:32:37.509Z,52.40
2017-07-26T12:35:11.885Z,51.50
2017-07-26T12:37:38.919Z,51.50
2017-07-26T12:40:06.984Z,50.90
2017-07-26T12:42:32.933Z,52.80
2017-07-26T12:45:09.228Z,52.60
2017-07-26T12:47:38.565Z,54.00
2017-07-26T12:50:16.701Z,53.70
2017-07-26T12:52:48.976Z,50.60
2017-07-26T12:55:15.991Z,50.20
2017-07-26T12:57:42.737Z,50.10
2017-07-26T13:00:10.510Z,49.30
2017-07-26T13:02:36.461Z,49.00
2017-07-26T13:05:03.503Z,48.10
2017-07-26T13:07:31.623Z,46.90
2017-07-26T13:10:04.091Z,47.20
2017-07-26T13:12:50.623Z,47.30
2017-07-26T13:15:17.606Z,47.70
2017-07-26T13:17:43.550Z,46.40
2017-07-26T13:20:09.560Z,45.20
2017-07-26T13:22:35.493Z,43.50
2017-07-26T13:25:01.478Z,43.20
2017-07-26T13:27:27.550Z,42.60
2017-07-26T13:29:53.618Z,41.80
2017-07-26T13:32:23.186Z,41.40
2017-07-26T13:34:49.221Z,42.90
2017-07-26T13:37:16.282Z,42.50
2017-07-26T13:39:46.264Z,43.00
2017-07-26T13:42:16.771Z,43.90
2017-07-26T13:44:44.821Z,43.80
2017-07-26T13:47:14.403Z,44.20
2017-07-26T13:49:40.424Z,44.70
2017-07-26T13:52:07.454Z,45.80
2017-07-26T13:54:39.332Z,46.10
2017-07-26T13:57:08.622Z,46.50
2017-07-26T13:59:41.742Z,46.70
2017-07-26T14:02:12.174Z,47.10
2017-07-26T14:04:53.361Z,46.40
2017-07-26T14:07:22.941Z,46.30
2017-07-26T14:09:51.704Z,45.30
2017-07-26T14:12:19.722Z,45.20
2017-07-26T14:14:48.806Z,45.40
2017-07-26T14:17:19.125Z,45.20
2017-07-26T14:19:45.152Z,45.10
2017-07-26T14:22:22.718Z,44.20
2017-07-26T14:24:52.175Z,44.10
2017-07-26T14:27:18.930Z,46.20
2017-07-26T14:29:46.894Z,46.20
2017-07-26T14:32:12.917Z,49.00
2017-07-26T14:34:40.921Z,46.30
2017-07-26T14:37:06.909Z,46.00
2017-07-26T14:39:33.878Z,46.10
2017-07-26T14:42:01.954Z,45.10
2017-07-26T14:44:28.679Z,45.00
2017-07-26T14:46:56.563Z,43.80
2017-07-26T14:49:29.368Z,44.70
2017-07-26T14:52:01.529Z,44.70
2017-07-26T14:54:31.846Z,43.10
2017-07-26T14:56:57.862Z,43.10
2017-07-26T14:59:25.833Z,43.50
2017-07-26T15:01:58.870Z,44.20
2017-07-26T15:04:24.897Z,42.00
2017-07-26T15:06:57.384Z,43.60
2017-07-26T15:09:24.429Z,41.90
2017-07-26T15:11:55.129Z,41.80
2017-07-26T15:14:34.476Z,43.20
2017-07-26T15:17:03.902Z,42.50
2017-07-26T15:19:30.901Z,42.80
2017-07-26T15:21:59.594Z,44.10
2017-07-26T15:24:26.365Z,43.30
2017-07-26T15:26:57.190Z,42.60
2017-07-26T15:29:23.124Z,43.00
2017-07-26T15:31:52.952Z,42.40
2017-07-26T15:34:19.981Z,42.40
2017-07-26T15:36:48.674Z,44.30
2017-07-26T15:39:15.440Z,42.50
2017-07-26T15:41:41.458Z,41.80
2017-07-26T15:44:09.430Z,43.60
2017-07-26T15:46:37.196Z,41.10
2017-07-26T15:49:05.974Z,40.80
2017-07-26T15:51:33.961Z,40.70
2017-07-26T15:54:01.744Z,40.90
2017-07-26T15:56:30.925Z,41.00
2017-07-26T15:58:57.609Z,40.50
2017-07-26T16:01:24.629Z,40.90
2017-07-26T16:03:51.833Z,40.50
2017-07-26T16:06:21.251Z,41.90
2017-07-26T16:08:47.250Z,41.70
2017-07-26T16:11:13.182Z,42.30
2017-07-26T16:13:39.169Z,42.80
2017-07-26T16:16:09.493Z,43.60
2017-07-26T16:18:40.849Z,44.70
2017-07-26T16:21:11.292Z,43.50
2017-07-26T16:23:37.343Z,43.50
2017-07-26T16:26:06.944Z,43.30
2017-07-26T16:28:55.134Z,43.40
2017-07-26T16:31:21.253Z,43.10
2017-07-26T16:33:55.116Z,43.90
2017-07-26T16:36:42.484Z,43.40
2017-07-26T16:39:13.078Z,43.50
2017-07-26T16:41:44.285Z,44.80
2017-07-26T16:44:28.794Z,46.40
2017-07-26T16:46:54.797Z,46.30
2017-07-26T16:49:24.597Z,46.50
2017-07-26T16:54:58.337Z,45.60
2017-07-26T16:57:37.702Z,46.80
2017-07-26T17:00:21.313Z,46.70
2017-07-26T17:02:52.834Z,46.10
2017-07-26T17:05:18.878Z,47.70
2017-07-26T17:07:55.422Z,47.60
2017-07-26T17:10:35.845Z,47.70
2017-07-26T17:13:05.379Z,47.70
2017-07-26T17:15:32.178Z,46.90
2017-07-26T17:17:58.131Z,46.80
2017-07-26T17:20:34.341Z,47.60
2017-07-26T17:23:21.807Z,47.30
2017-07-26T17:25:47.882Z,46.20
2017-07-26T17:28:21.591Z,46.10
2017-07-26T17:30:53.978Z,46.70
2017-07-26T17:36:37.960Z,47.60
2017-07-26T17:39:11.494Z,47.60
2017-07-26T17:41:46.028Z,47.40
2017-07-26T17:44:29.379Z,47.40
2017-07-26T17:46:57.421Z,47.50
2017-07-26T17:49:27.213Z,47.00
2017-07-26T17:51:53.247Z,48.20
2017-07-26T17:54:19.934Z,49.00
2017-07-26T17:56:47.976Z,49.00
2017-07-26T17:59:14.733Z,50.10
2017-07-26T18:01:47.526Z,50.10
2017-07-26T18:04:32.946Z,50.40
2017-07-26T18:07:13.481Z,51.10
2017-07-26T18:09:49.945Z,51.80
2017-07-26T18:12:23.221Z,51.80
2017-07-26T18:14:55.445Z,51.90
2017-07-26T18:17:45.714Z,52.50
2017-07-26T18:20:19.281Z,52.30
2017-07-26T18:22:53.709Z,52.30
2017-07-26T18:25:26.980Z,52.70
2017-07-26T18:27:54.021Z,52.30
2017-07-26T18:30:30.710Z,53.10
2017-07-26T18:33:10.066Z,52.70
2017-07-26T18:35:41.573Z,52.70
2017-07-26T18:38:11.901Z,52.70
2017-07-26T18:40:39.676Z,53.80
2017-07-26T18:43:06.789Z,53.00
2017-07-26T18:45:46.919Z,52.90
2017-07-26T18:48:25.439Z,52.70
2017-07-26T18:53:45.589Z,54.60
2017-07-26T18:56:11.609Z,53.60
2017-07-26T18:58:37.666Z,54.50
2017-07-26T19:01:12.412Z,54.00
2017-07-26T19:03:45.701Z,54.20
2017-07-26T19:06:22.194Z,55.30
2017-07-26T19:08:59.579Z,55.50
2017-07-26T19:11:33.885Z,56.10
2017-07-26T19:13:59.842Z,56.00
2017-07-26T19:16:25.896Z,55.20
2017-07-26T19:18:55.862Z,56.50
2017-07-26T19:21:25.025Z,56.30
2017-07-26T19:24:04.279Z,56.70
2017-07-26T19:26:40.639Z,56.60
2017-07-26T19:29:17.043Z,56.90
2017-07-26T19:31:53.489Z,57.00
2017-07-26T19:34:26.901Z,57.60
2017-07-26T19:37:18.252Z,57.60
2017-07-26T19:39:53.838Z,58.30
2017-07-26T19:42:34.321Z,58.20
2017-07-26T19:45:06.822Z,59.20
2017-07-26T19:47:33.874Z,59.20
2017-07-26T19:49:59.966Z,60.00
2017-07-26T19:52:28.045Z,64.00
2017-07-26T19:55:14.898Z,64.30
2017-07-26T19:57:40.977Z,62.10
2017-07-26T20:00:17.878Z,62.70
2017-07-26T20:02:54.206Z,62.00
2017-07-26T20:05:26.594Z,63.90
2017-07-26T20:08:03.047Z,65.60
2017-07-26T20:10:32.366Z,66.20
2017-07-26T20:13:04.641Z,63.40
2017-07-26T20:15:44.115Z,65.40
2017-07-26T20:18:18.495Z,65.20
2017-07-26T20:20:50.851Z,64.40
2017-07-26T20:25:50.247Z,65.10
2017-07-26T20:28:34.753Z,66.70
2017-07-26T20:31:01.766Z,66.80
2017-07-26T20:33:41.539Z,67.80
2017-07-26T20:36:07.659Z,67.80
2017-07-26T20:38:40.241Z,66.90
2017-07-26T20:41:07.605Z,67.50
2017-07-26T20:43:33.546Z,67.10
2017-07-26T20:46:03.199Z,66.80
2017-07-26T20:48:29.322Z,67.60
2017-07-26T20:50:55.400Z,66.80
2017-07-26T20:53:26.138Z,66.70
2017-07-26T20:56:04.436Z,67.00
2017-07-26T20:58:30.392Z,67.70
2017-07-26T21:01:10.151Z,66.40
2017-07-26T21:03:46.566Z,66.10
2017-07-26T21:06:21.078Z,66.80
2017-07-26T21:08:51.413Z,67.30
2017-07-26T21:11:24.956Z,67.10
2017-07-26T21:13:55.316Z,68.20
2017-07-26T21:16:22.342Z,69.00
2017-07-26T21:18:48.691Z,66.70
2017-07-26T21:21:16.277Z,67.10
2017-07-26T21:23:43.583Z,66.60
2017-07-26T21:26:09.851Z,66.70
2017-07-26T21:28:39.314Z,66.50
2017-07-26T21:31:08.378Z,70.10
2017-07-26T21:33:35.073Z,72.90
2017-07-26T21:36:01.060Z,72.90
2017-07-26T21:38:40.264Z,73.60
2017-07-26T21:41:12.693Z,73.30
2017-07-26T21:43:39.446Z,73.10
2017-07-26T21:46:06.618Z,69.00
2017-07-26T21:48:32.589Z,67.50
2017-07-26T21:51:01.007Z,67.80
2017-07-26T21:53:28.041Z,67.30
2017-07-26T21:56:01.451Z,68.00
2017-07-26T21:58:47.929Z,67.80
2017-07-26T22:01:18.090Z,68.40
2017-07-26T22:03:44.820Z,69.10
2017-07-26T22:06:25.232Z,69.40
2017-07-26T22:08:51.202Z,68.40
2017-07-26T22:11:17.181Z,68.60
2017-07-26T22:13:43.203Z,69.10
2017-07-26T22:16:09.159Z,70.50
2017-07-26T22:18:35.098Z,70.10
2017-07-26T22:21:01.791Z,72.20
2017-07-26T22:23:27.782Z,72.10
2017-07-26T22:25:53.808Z,72.70
2017-07-26T22:28:20.510Z,70.70
2017-07-26T22:30:46.466Z,70.50
2017-07-26T22:33:13.203Z,71.50
2017-07-26T22:35:39.942Z,70.60
2017-07-26T22:38:05.886Z,70.60
2017-07-26T22:40:32.577Z,71.00
2017-07-26T22:42:58.529Z,70.40
2017-07-26T22:45:24.479Z,70.60
2017-07-26T22:47:51.170Z,70.30
2017-07-26T22:50:17.138Z,70.30
2017-07-26T22:52:43.110Z,72.20
2017-07-26T22:55:09.091Z,73.30
2017-07-26T22:57:35.037Z,75.70
2017-07-26T23:00:08.909Z,75.30
2017-07-26T23:02:34.834Z,75.20
2017-07-26T23:05:00.785Z,73.80
2017-07-26T23:07:26.727Z,73.80
2017-07-26T23:09:52.661Z,73.40
2017-07-26T23:12:19.347Z,74.00
2017-07-26T23:14:45.297Z,74.00
2017-07-26T23:17:11.253Z,73.50
2017-07-26T23:19:37.174Z,73.70
2017-07-26T23:22:03.877Z,71.40
2017-07-26T23:24:29.807Z,72.00
2017-07-26T23:26:55.744Z,72.10
2017-07-26T23:29:21.681Z,72.20
2017-07-26T23:31:47.618Z,72.50
2017-07-26T23:34:13.610Z,72.60
2017-07-26T23:36:39.609Z,72.80
2017-07-26T23:39:06.273Z,72.50
2017-07-26T23:41:32.233Z,72.50
2017-07-26T23:43:58.230Z,72.40
2017-07-26T23:46:24.214Z,72.80
2017-07-26T23:48:50.129Z,72.60
2017-07-26T23:51:16.093Z,73.10
2017-07-26T23:53:42.063Z,74.00
2017-07-26T23:56:08.058Z,74.00
2017-07-26T23:58:34.019Z,73.80
